sensor_id;sensor_type;location;lat;lon;timestamp;pressure;altitude;pressure_sealevel;temperature;humidity
19112;BME280;9688;51.906;8.376;2023-05-08T00:01:42;101279.09;;;12.86;80.33
19112;BME280;9688;51.906;8.376;2023-05-08T00:04:29;101275.66;;;12.83;81.22
19112;BME280;9688;51.906;8.376;2023-05-08T00:07:14;101281.22;;;12.77;80.72
19112;BME280;9688;51.906;8.376;2023-05-08T00:10:00;101281.34;;;12.73;81.36
19112;BME280;9688;51.906;8.376;2023-05-08T00:12:48;101278.78;;;12.70;81.02
19112;BME280;9688;51.906;8.376;2023-05-08T00:15:34;101276.13;;;12.70;81.26
19112;BME280;9688;51.906;8.376;2023-05-08T00:18:20;101278.78;;;12.70;81.58
19112;BME280;9688;51.906;8.376;2023-05-08T00:21:07;101273.59;;;12.67;81.49
19112;BME280;9688;51.906;8.376;2023-05-08T00:23:52;101281.56;;;12.67;81.06
19112;BME280;9688;51.906;8.376;2023-05-08T00:26:38;101276.25;;;12.67;81.77
19112;BME280;9688;51.906;8.376;2023-05-08T00:29:24;101277.97;;;12.68;81.85
19112;BME280;9688;51.906;8.376;2023-05-08T00:32:12;101274.41;;;12.69;81.41
19112;BME280;9688;51.906;8.376;2023-05-08T00:34:58;101278.69;;;12.73;81.84
19112;BME280;9688;51.906;8.376;2023-05-08T00:37:44;101269.78;;;12.75;81.73
19112;BME280;9688;51.906;8.376;2023-05-08T00:40:30;101270.59;;;12.77;81.72
19112;BME280;9688;51.906;8.376;2023-05-08T00:43:15;101267.13;;;12.75;81.84
19112;BME280;9688;51.906;8.376;2023-05-08T00:46:02;101266.34;;;12.72;81.68
19112;BME280;9688;51.906;8.376;2023-05-08T00:48:48;101266.34;;;12.72;81.29
19112;BME280;9688;51.906;8.376;2023-05-08T00:51:34;101259.25;;;12.73;82.15
19112;BME280;9688;51.906;8.376;2023-05-08T00:54:21;101259.25;;;12.73;81.92
19112;BME280;9688;51.906;8.376;2023-05-08T00:57:08;101270.72;;;12.73;81.81
19112;BME280;9688;51.906;8.376;2023-05-08T00:59:54;101261.81;;;12.75;81.78
19112;BME280;9688;51.906;8.376;2023-05-08T01:02:40;101265.38;;;12.75;81.73
19112;BME280;9688;51.906;8.376;2023-05-08T01:05:26;101265.28;;;12.77;81.87
19112;BME280;9688;51.906;8.376;2023-05-08T01:08:13;101271.41;;;12.79;81.56
19112;BME280;9688;51.906;8.376;2023-05-08T01:11:16;101268.94;;;12.74;81.24
19112;BME280;9688;51.906;8.376;2023-05-08T01:14:10;101266.38;;;12.71;81.99
19112;BME280;9688;51.906;8.376;2023-05-08T01:17:07;101256.72;;;12.70;81.91
19112;BME280;9688;51.906;8.376;2023-05-08T01:20:23;101269.19;;;12.66;81.43
19112;BME280;9688;51.906;8.376;2023-05-08T01:23:28;101268.31;;;12.67;81.92
19112;BME280;9688;51.906;8.376;2023-05-08T01:26:38;101265.66;;;12.67;81.59
19112;BME280;9688;51.906;8.376;2023-05-08T01:29:50;101265.66;;;12.67;81.67
19112;BME280;9688;51.906;8.376;2023-05-08T01:32:42;101264.81;;;12.65;82.02
19112;BME280;9688;51.906;8.376;2023-05-08T01:35:44;101267.59;;;12.62;81.62
19112;BME280;9688;51.906;8.376;2023-05-08T01:38:33;101272.88;;;12.64;81.78
19112;BME280;9688;51.906;8.376;2023-05-08T01:41:25;101269.19;;;12.66;81.82
19112;BME280;9688;51.906;8.376;2023-05-08T01:44:16;101268.31;;;12.67;81.63
19112;BME280;9688;51.906;8.376;2023-05-08T01:47:04;101270.22;;;12.64;82.15
19112;BME280;9688;51.906;8.376;2023-05-08T01:49:57;101271.22;;;12.60;81.87
19112;BME280;9688;51.906;8.376;2023-05-08T01:52:53;101269.50;;;12.59;82.79
19112;BME280;9688;51.906;8.376;2023-05-08T01:55:42;101270.28;;;12.61;82.42
19112;BME280;9688;51.906;8.376;2023-05-08T01:58:32;101271.09;;;12.63;82.56
19112;BME280;9688;51.906;8.376;2023-05-08T02:01:21;101273.00;;;12.59;82.05
19112;BME280;9688;51.906;8.376;2023-05-08T02:04:08;101266.00;;;12.58;82.27
19112;BME280;9688;51.906;8.376;2023-05-08T02:06:58;101276.59;;;12.58;81.90
19112;BME280;9688;51.906;8.376;2023-05-08T02:09:45;101268.66;;;12.58;82.39
19112;BME280;9688;51.906;8.376;2023-05-08T02:12:31;101263.34;;;12.58;82.65
19112;BME280;9688;51.906;8.376;2023-05-08T02:15:19;101266.84;;;12.59;82.16
19112;BME280;9688;51.906;8.376;2023-05-08T02:18:07;101268.56;;;12.60;82.33
19112;BME280;9688;51.906;8.376;2023-05-08T02:20:53;101259.00;;;12.56;82.46
19112;BME280;9688;51.906;8.376;2023-05-08T02:23:42;101266.19;;;12.52;82.55
19112;BME280;9688;51.906;8.376;2023-05-08T02:26:30;101264.50;;;12.49;82.71
19112;BME280;9688;51.906;8.376;2023-05-08T02:29:17;101269.13;;;12.44;83.48
19112;BME280;9688;51.906;8.376;2023-05-08T02:32:05;101271.94;;;12.40;83.06
19112;BME280;9688;51.906;8.376;2023-05-08T02:34:53;101269.41;;;12.37;83.31
19112;BME280;9688;51.906;8.376;2023-05-08T02:37:40;101268.63;;;12.33;83.47
19112;BME280;9688;51.906;8.376;2023-05-08T02:40:28;101267.66;;;12.36;83.58
19112;BME280;9688;51.906;8.376;2023-05-08T02:43:15;101273.88;;;12.35;83.47
19112;BME280;9688;51.906;8.376;2023-05-08T02:46:08;101266.88;;;12.34;83.91
19112;BME280;9688;51.906;8.376;2023-05-08T02:48:57;101261.56;;;12.34;84.01
19112;BME280;9688;51.906;8.376;2023-05-08T02:51:49;101262.53;;;12.31;84.09
19112;BME280;9688;51.906;8.376;2023-05-08T02:54:42;101259.06;;;12.29;84.04
19112;BME280;9688;51.906;8.376;2023-05-08T02:57:38;101266.09;;;12.30;83.44
19112;BME280;9688;51.906;8.376;2023-05-08T03:00:31;101263.63;;;12.25;83.98
19112;BME280;9688;51.906;8.376;2023-05-08T03:03:21;101269.03;;;12.22;84.52
19112;BME280;9688;51.906;8.376;2023-05-08T03:06:11;101266.53;;;12.18;83.98
19112;BME280;9688;51.906;8.376;2023-05-08T03:09:00;101271.09;;;12.14;84.81
19112;BME280;9688;51.906;8.376;2023-05-08T03:11:49;101265.00;;;12.11;84.43
19112;BME280;9688;51.906;8.376;2023-05-08T03:14:43;101259.88;;;12.06;84.81
19112;BME280;9688;51.906;8.376;2023-05-08T03:17:31;101267.88;;;12.04;85.27
19112;BME280;9688;51.906;8.376;2023-05-08T03:20:18;101257.25;;;12.04;85.13
19112;BME280;9688;51.906;8.376;2023-05-08T03:23:07;101263.50;;;12.03;85.51
19112;BME280;9688;51.906;8.376;2023-05-08T03:25:54;101262.63;;;12.03;84.43
19112;BME280;9688;51.906;8.376;2023-05-08T03:28:41;101266.06;;;12.05;85.63
19112;BME280;9688;51.906;8.376;2023-05-08T03:31:31;101259.03;;;12.05;85.80
19112;BME280;9688;51.906;8.376;2023-05-08T03:34:18;101263.38;;;12.07;85.69
19112;BME280;9688;51.906;8.376;2023-05-08T03:37:05;101256.25;;;12.09;84.94
19112;BME280;9688;51.906;8.376;2023-05-08T03:39:51;101253.59;;;12.09;84.81
19112;BME280;9688;51.906;8.376;2023-05-08T03:42:37;101262.31;;;12.12;85.23
19112;BME280;9688;51.906;8.376;2023-05-08T03:45:27;101253.53;;;12.10;85.37
19112;BME280;9688;51.906;8.376;2023-05-08T03:48:14;101255.28;;;12.11;85.01
19112;BME280;9688;51.906;8.376;2023-05-08T03:51:01;101258.84;;;12.10;85.72
19112;BME280;9688;51.906;8.376;2023-05-08T03:53:46;101255.31;;;12.10;85.42
19112;BME280;9688;51.906;8.376;2023-05-08T03:56:34;101258.84;;;12.10;85.89
19112;BME280;9688;51.906;8.376;2023-05-08T03:59:28;101250.06;;;12.08;85.27
19112;BME280;9688;51.906;8.376;2023-05-08T04:02:25;101244.69;;;12.11;85.58
19112;BME280;9688;51.906;8.376;2023-05-08T04:05:20;101247.34;;;12.11;85.92
19112;BME280;9688;51.906;8.376;2023-05-08T04:08:15;101247.25;;;12.13;85.58
19112;BME280;9688;51.906;8.376;2023-05-08T04:11:07;101248.19;;;12.12;85.26
19112;BME280;9688;51.906;8.376;2023-05-08T04:13:59;101252.47;;;12.16;85.22
19112;BME280;9688;51.906;8.376;2023-05-08T04:16:48;101248.81;;;12.20;85.78
19112;BME280;9688;51.906;8.376;2023-05-08T04:19:37;101248.84;;;12.18;85.64
19112;BME280;9688;51.906;8.376;2023-05-08T04:22:32;101252.41;;;12.17;85.43
19112;BME280;9688;51.906;8.376;2023-05-08T04:25:18;101250.63;;;12.18;86.11
19112;BME280;9688;51.906;8.376;2023-05-08T04:28:05;101246.03;;;12.23;85.57
19112;BME280;9688;51.906;8.376;2023-05-08T04:30:51;101249.44;;;12.26;85.94
19112;BME280;9688;51.906;8.376;2023-05-08T04:33:37;101255.38;;;12.33;84.84
19112;BME280;9688;51.906;8.376;2023-05-08T04:36:23;101255.94;;;12.43;85.60
19112;BME280;9688;51.906;8.376;2023-05-08T04:39:13;101256.50;;;12.51;85.16
19112;BME280;9688;51.906;8.376;2023-05-08T04:41:59;101258.13;;;12.55;84.93
19112;BME280;9688;51.906;8.376;2023-05-08T04:44:47;101253.50;;;12.60;84.55
19112;BME280;9688;51.906;8.376;2023-05-08T04:47:32;101244.31;;;12.70;84.62
19112;BME280;9688;51.906;8.376;2023-05-08T04:50:17;101257.88;;;12.86;83.69
19112;BME280;9688;51.906;8.376;2023-05-08T04:53:03;101260.56;;;13.08;83.47
19112;BME280;9688;51.906;8.376;2023-05-08T04:55:51;101261.41;;;13.32;82.71
19112;BME280;9688;51.906;8.376;2023-05-08T04:58:40;101264.72;;;13.61;81.78
19112;BME280;9688;51.906;8.376;2023-05-08T05:01:26;101260.38;;;13.80;81.41
19112;BME280;9688;51.906;8.376;2023-05-08T05:04:11;101270.84;;;14.05;80.65
19112;BME280;9688;51.906;8.376;2023-05-08T05:06:56;101274.56;;;14.22;79.93
19112;BME280;9688;51.906;8.376;2023-05-08T05:09:42;101276.16;;;14.26;79.85
19112;BME280;9688;51.906;8.376;2023-05-08T05:12:30;101276.09;;;14.27;79.81
19112;BME280;9688;51.906;8.376;2023-05-08T05:15:17;101275.72;;;14.16;79.68
19112;BME280;9688;51.906;8.376;2023-05-08T05:18:03;101278.72;;;14.07;80.15
19112;BME280;9688;51.906;8.376;2023-05-08T05:20:48;101280.84;;;13.99;79.82
19112;BME280;9688;51.906;8.376;2023-05-08T05:23:34;101284.72;;;13.92;80.18
19112;BME280;9688;51.906;8.376;2023-05-08T05:26:19;101285.63;;;13.91;80.04
19112;BME280;9688;51.906;8.376;2023-05-08T05:29:08;101282.09;;;13.90;79.99
19112;BME280;9688;51.906;8.376;2023-05-08T05:31:54;101288.25;;;14.13;79.66
19112;BME280;9688;51.906;8.376;2023-05-08T05:34:39;101287.91;;;14.41;78.72
19112;BME280;9688;51.906;8.376;2023-05-08T05:37:25;101296.50;;;14.68;78.01
19112;BME280;9688;51.906;8.376;2023-05-08T05:40:11;101294.53;;;14.92;77.47
19112;BME280;9688;51.906;8.376;2023-05-08T05:43:02;101296.66;;;15.23;76.16
19112;BME280;9688;51.906;8.376;2023-05-08T05:45:49;101300.41;;;15.38;75.81
19112;BME280;9688;51.906;8.376;2023-05-08T05:48:36;101300.16;;;15.43;75.21
19112;BME280;9688;51.906;8.376;2023-05-08T05:51:29;101305.66;;;15.39;75.33
19112;BME280;9688;51.906;8.376;2023-05-08T05:54:19;101305.66;;;15.39;75.51
19112;BME280;9688;51.906;8.376;2023-05-08T05:57:07;101315.28;;;15.42;75.50
19112;BME280;9688;51.906;8.376;2023-05-08T05:59:53;101307.66;;;15.53;74.64
19112;BME280;9688;51.906;8.376;2023-05-08T06:02:41;101301.97;;;15.80;73.77
19112;BME280;9688;51.906;8.376;2023-05-08T06:05:26;101314.50;;;15.95;73.51
19112;BME280;9688;51.906;8.376;2023-05-08T06:08:12;101309.81;;;16.00;73.57
19112;BME280;9688;51.906;8.376;2023-05-08T06:10:59;101303.69;;;15.98;73.75
19112;BME280;9688;51.906;8.376;2023-05-08T06:13:48;101313.34;;;16.01;73.71
19112;BME280;9688;51.906;8.376;2023-05-08T06:16:34;101319.16;;;16.09;72.63
19112;BME280;9688;51.906;8.376;2023-05-08T06:19:21;101315.47;;;16.12;72.92
19112;BME280;9688;51.906;8.376;2023-05-08T06:22:07;101314.31;;;16.17;72.38
19112;BME280;9688;51.906;8.376;2023-05-08T06:24:53;101313.97;;;16.23;71.98
19112;BME280;9688;51.906;8.376;2023-05-08T06:27:41;101319.16;;;16.26;72.33
19112;BME280;9688;51.906;8.376;2023-05-08T06:30:28;101319.25;;;16.25;72.05
19112;BME280;9688;51.906;8.376;2023-05-08T06:33:15;101320.41;;;16.37;71.74
19112;BME280;9688;51.906;8.376;2023-05-08T06:36:04;101329.13;;;16.58;71.57
19112;BME280;9688;51.906;8.376;2023-05-08T06:38:50;101327.50;;;16.55;70.84
19112;BME280;9688;51.906;8.376;2023-05-08T06:41:36;101326.53;;;16.56;71.60
19112;BME280;9688;51.906;8.376;2023-05-08T06:44:22;101317.59;;;16.57;71.55
19112;BME280;9688;51.906;8.376;2023-05-08T06:47:09;101319.84;;;16.65;71.18
19112;BME280;9688;51.906;8.376;2023-05-08T06:49:56;101322.50;;;16.65;71.01
19112;BME280;9688;51.906;8.376;2023-05-08T06:52:44;101322.28;;;16.69;71.01
19112;BME280;9688;51.906;8.376;2023-05-08T06:55:30;101323.25;;;16.68;71.42
19112;BME280;9688;51.906;8.376;2023-05-08T06:58:19;101321.44;;;16.69;71.25
19112;BME280;9688;51.906;8.376;2023-05-08T07:01:07;101313.25;;;16.72;70.64
19112;BME280;9688;51.906;8.376;2023-05-08T07:03:53;101311.06;;;16.80;71.16
19112;BME280;9688;51.906;8.376;2023-05-08T07:06:40;101313.06;;;16.92;70.39
19112;BME280;9688;51.906;8.376;2023-05-08T07:09:30;101313.53;;;17.01;70.45
19112;BME280;9688;51.906;8.376;2023-05-08T07:12:16;101315.41;;;16.99;70.63
19112;BME280;9688;51.906;8.376;2023-05-08T07:15:04;101318.78;;;17.02;70.51
19112;BME280;9688;51.906;8.376;2023-05-08T07:17:51;101316.28;;;17.15;70.49
19112;BME280;9688;51.906;8.376;2023-05-08T07:20:37;101319.00;;;17.31;70.11
19112;BME280;9688;51.906;8.376;2023-05-08T07:23:23;101319.88;;;17.47;69.95
19112;BME280;9688;51.906;8.376;2023-05-08T07:26:23;101308.13;;;17.81;69.14
19112;BME280;9688;51.906;8.376;2023-05-08T07:29:12;101305.44;;;18.27;67.97
19112;BME280;9688;51.906;8.376;2023-05-08T07:31:58;101306.13;;;18.90;66.63
19112;BME280;9688;51.906;8.376;2023-05-08T07:34:45;101294.28;;;19.50;65.16
19112;BME280;9688;51.906;8.376;2023-05-08T07:37:35;101286.78;;;19.69;64.40
19112;BME280;9688;51.906;8.376;2023-05-08T07:40:23;101282.81;;;20.02;63.77
19112;BME280;9688;51.906;8.376;2023-05-08T07:43:10;101280.81;;;20.44;62.82
19112;BME280;9688;51.906;8.376;2023-05-08T07:46:02;101278.72;;;20.75;61.89
19112;BME280;9688;51.906;8.376;2023-05-08T07:48:48;101282.16;;;20.77;61.69
19112;BME280;9688;51.906;8.376;2023-05-08T07:51:37;101285.03;;;20.86;61.47
19112;BME280;9688;51.906;8.376;2023-05-08T07:54:23;101273.00;;;20.92;61.42
19112;BME280;9688;51.906;8.376;2023-05-08T07:57:13;101278.69;;;21.00;60.97
19112;BME280;9688;51.906;8.376;2023-05-08T08:00:11;101270.81;;;21.10;60.71
19112;BME280;9688;51.906;8.376;2023-05-08T08:03:03;101271.50;;;21.01;60.81
19112;BME280;9688;51.906;8.376;2023-05-08T08:05:51;101265.28;;;20.87;60.90
19112;BME280;9688;51.906;8.376;2023-05-08T08:08:41;101272.91;;;20.81;60.96
19112;BME280;9688;51.906;8.376;2023-05-08T08:11:29;101264.28;;;20.76;61.10
19112;BME280;9688;51.906;8.376;2023-05-08T08:14:15;101268.63;;;20.65;61.32
19112;BME280;9688;51.906;8.376;2023-05-08T08:17:06;101261.94;;;20.45;62.01
19112;BME280;9688;51.906;8.376;2023-05-08T08:19:53;101259.34;;;20.44;62.03
19112;BME280;9688;51.906;8.376;2023-05-08T08:22:40;101261.59;;;20.50;62.04
19112;BME280;9688;51.906;8.376;2023-05-08T08:25:27;101267.00;;;20.63;61.90
19112;BME280;9688;51.906;8.376;2023-05-08T08:28:14;101266.97;;;20.76;61.61
19112;BME280;9688;51.906;8.376;2023-05-08T08:31:01;101268.50;;;20.92;61.49
19112;BME280;9688;51.906;8.376;2023-05-08T08:33:59;101262.94;;;21.20;60.62
19112;BME280;9688;51.906;8.376;2023-05-08T08:36:48;101263.88;;;21.31;60.48
19112;BME280;9688;51.906;8.376;2023-05-08T08:39:37;101262.06;;;21.32;60.73
19112;BME280;9688;51.906;8.376;2023-05-08T08:42:31;101260.09;;;21.47;60.36
19112;BME280;9688;51.906;8.376;2023-05-08T08:45:25;101264.31;;;21.86;59.63
19112;BME280;9688;51.906;8.376;2023-05-08T08:48:13;101262.63;;;21.96;59.32
19112;BME280;9688;51.906;8.376;2023-05-08T08:51:05;101258.56;;;22.15;58.93
19112;BME280;9688;51.906;8.376;2023-05-08T08:54:03;101263.28;;;22.11;59.03
19112;BME280;9688;51.906;8.376;2023-05-08T08:56:51;101276.09;;;21.96;59.28
19112;BME280;9688;51.906;8.376;2023-05-08T08:59:39;101270.56;;;21.87;59.66
19112;BME280;9688;51.906;8.376;2023-05-08T09:05:58;101281.72;;;21.69;60.23
19112;BME280;9688;51.906;8.376;2023-05-08T09:08:50;101277.75;;;21.86;59.42
19112;BME280;9688;51.906;8.376;2023-05-08T09:11:42;101283.13;;;22.10;59.30
19112;BME280;9688;51.906;8.376;2023-05-08T09:14:30;101273.28;;;22.33;58.65
19112;BME280;9688;51.906;8.376;2023-05-08T09:17:21;101276.00;;;22.44;58.27
19112;BME280;9688;51.906;8.376;2023-05-08T09:20:15;101273.47;;;22.43;58.11
19112;BME280;9688;51.906;8.376;2023-05-08T09:23:21;101282.09;;;22.24;58.80
19112;BME280;9688;51.906;8.376;2023-05-08T09:26:08;101280.50;;;22.21;58.76
19112;BME280;9688;51.906;8.376;2023-05-08T09:29:07;101276.72;;;22.24;58.80
19112;BME280;9688;51.906;8.376;2023-05-08T09:31:54;101276.63;;;22.37;58.77
19112;BME280;9688;51.906;8.376;2023-05-08T09:34:39;101274.81;;;22.48;58.16
19112;BME280;9688;51.906;8.376;2023-05-08T09:37:26;101273.22;;;22.46;58.43
19112;BME280;9688;51.906;8.376;2023-05-08T09:40:16;101269.41;;;22.37;58.62
19112;BME280;9688;51.906;8.376;2023-05-08T09:43:14;101273.31;;;22.44;58.74
19112;BME280;9688;51.906;8.376;2023-05-08T09:46:21;101272.63;;;22.65;58.60
19112;BME280;9688;51.906;8.376;2023-05-08T09:49:15;101271.41;;;22.69;58.77
19112;BME280;9688;51.906;8.376;2023-05-08T09:52:02;101276.69;;;22.70;58.78
19112;BME280;9688;51.906;8.376;2023-05-08T09:54:47;101273.97;;;22.70;58.76
19112;BME280;9688;51.906;8.376;2023-05-08T09:57:34;101274.00;;;22.82;58.70
19112;BME280;9688;51.906;8.376;2023-05-08T10:00:25;101274.84;;;22.82;58.52
19112;BME280;9688;51.906;8.376;2023-05-08T10:03:11;101277.44;;;22.73;59.02
19112;BME280;9688;51.906;8.376;2023-05-08T10:06:11;101272.63;;;22.54;59.11
19112;BME280;9688;51.906;8.376;2023-05-08T10:09:08;101270.63;;;22.56;59.48
19112;BME280;9688;51.906;8.376;2023-05-08T10:11:55;101265.75;;;22.49;59.49
19112;BME280;9688;51.906;8.376;2023-05-08T10:14:41;101269.06;;;22.53;59.74
19112;BME280;9688;51.906;8.376;2023-05-08T10:17:35;101263.81;;;22.74;59.28
19112;BME280;9688;51.906;8.376;2023-05-08T10:20:25;101257.19;;;22.89;59.08
19112;BME280;9688;51.906;8.376;2023-05-08T10:23:15;101264.56;;;22.99;58.96
19112;BME280;9688;51.906;8.376;2023-05-08T10:26:07;101261.38;;;23.16;58.38
19112;BME280;9688;51.906;8.376;2023-05-08T10:28:57;101253.75;;;23.21;58.10
19112;BME280;9688;51.906;8.376;2023-05-08T10:31:43;101251.41;;;23.16;58.74
19112;BME280;9688;51.906;8.376;2023-05-08T10:34:32;101257.19;;;23.23;58.35
19112;BME280;9688;51.906;8.376;2023-05-08T10:37:19;101254.84;;;23.30;58.44
19112;BME280;9688;51.906;8.376;2023-05-08T10:40:07;101251.31;;;23.18;58.49
19112;BME280;9688;51.906;8.376;2023-05-08T10:42:56;101254.09;;;23.28;58.84
19112;BME280;9688;51.906;8.376;2023-05-08T10:45:43;101247.72;;;23.40;58.27
19112;BME280;9688;51.906;8.376;2023-05-08T10:48:38;101246.19;;;23.47;58.22
19112;BME280;9688;51.906;8.376;2023-05-08T10:51:40;101245.69;;;23.65;57.69
19112;BME280;9688;51.906;8.376;2023-05-08T10:54:50;101246.78;;;23.73;57.54
19112;BME280;9688;51.906;8.376;2023-05-08T10:58:13;101249.69;;;24.02;57.31
19112;BME280;9688;51.906;8.376;2023-05-08T11:01:15;101245.44;;;24.00;57.42
19112;BME280;9688;51.906;8.376;2023-05-08T11:04:18;101244.28;;;24.02;57.29
19112;BME280;9688;51.906;8.376;2023-05-08T11:07:08;101246.75;;;24.06;57.59
19112;BME280;9688;51.906;8.376;2023-05-08T11:10:06;101238.50;;;24.07;57.29
19112;BME280;9688;51.906;8.376;2023-05-08T11:12:55;101239.25;;;24.09;57.42
19112;BME280;9688;51.906;8.376;2023-05-08T11:15:49;101241.91;;;24.30;57.36
19112;BME280;9688;51.906;8.376;2023-05-08T11:18:35;101232.63;;;24.44;57.09
19112;BME280;9688;51.906;8.376;2023-05-08T11:21:26;101238.22;;;24.73;56.51
19112;BME280;9688;51.906;8.376;2023-05-08T11:24:33;101238.84;;;24.96;56.11
19112;BME280;9688;51.906;8.376;2023-05-08T11:28:07;101234.63;;;25.13;55.62
19112;BME280;9688;51.906;8.376;2023-05-08T11:30:52;101231.22;;;25.11;55.79
19112;BME280;9688;51.906;8.376;2023-05-08T11:33:43;101235.47;;;25.13;55.69
19112;BME280;9688;51.906;8.376;2023-05-08T11:36:30;101236.84;;;25.19;55.75
19112;BME280;9688;51.906;8.376;2023-05-08T11:39:27;101220.44;;;25.21;55.96
19112;BME280;9688;51.906;8.376;2023-05-08T11:42:35;101229.56;;;25.20;55.84
19112;BME280;9688;51.906;8.376;2023-05-08T11:45:22;101230.53;;;25.19;55.73
19112;BME280;9688;51.906;8.376;2023-05-08T11:48:15;101224.34;;;24.97;56.10
19112;BME280;9688;51.906;8.376;2023-05-08T11:51:04;101233.03;;;25.01;56.12
19112;BME280;9688;51.906;8.376;2023-05-08T11:53:52;101232.69;;;24.84;56.50
19112;BME280;9688;51.906;8.376;2023-05-08T11:56:40;101228.47;;;24.91;56.42
19112;BME280;9688;51.906;8.376;2023-05-08T11:59:36;101225.78;;;25.01;56.48
19112;BME280;9688;51.906;8.376;2023-05-08T12:02:35;101228.03;;;24.96;56.28
19112;BME280;9688;51.906;8.376;2023-05-08T12:05:26;101222.50;;;24.98;56.24
19112;BME280;9688;51.906;8.376;2023-05-08T12:08:14;101220.09;;;25.04;56.21
19112;BME280;9688;51.906;8.376;2023-05-08T12:11:00;101225.81;;;25.11;56.08
19112;BME280;9688;51.906;8.376;2023-05-08T12:13:49;101219.09;;;25.05;55.83
19112;BME280;9688;51.906;8.376;2023-05-08T12:16:42;101232.41;;;24.87;56.22
19112;BME280;9688;51.906;8.376;2023-05-08T12:19:29;101226.28;;;24.85;56.30
19112;BME280;9688;51.906;8.376;2023-05-08T12:22:15;101218.59;;;24.81;56.33
19112;BME280;9688;51.906;8.376;2023-05-08T12:25:02;101220.19;;;24.83;56.33
19112;BME280;9688;51.906;8.376;2023-05-08T12:27:50;101220.28;;;24.72;56.43
19112;BME280;9688;51.906;8.376;2023-05-08T12:30:48;101214.34;;;24.47;57.19
19112;BME280;9688;51.906;8.376;2023-05-08T12:33:37;101211.94;;;24.54;57.23
19112;BME280;9688;51.906;8.376;2023-05-08T12:36:28;101211.28;;;24.71;56.89
19112;BME280;9688;51.906;8.376;2023-05-08T12:39:19;101205.78;;;24.83;56.45
19112;BME280;9688;51.906;8.376;2023-05-08T12:42:10;101204.13;;;24.91;56.38
19112;BME280;9688;51.906;8.376;2023-05-08T12:45:03;101201.19;;;24.74;56.76
19112;BME280;9688;51.906;8.376;2023-05-08T12:47:57;101195.50;;;24.77;56.77
19112;BME280;9688;51.906;8.376;2023-05-08T12:50:45;101191.72;;;24.99;56.43
19112;BME280;9688;51.906;8.376;2023-05-08T12:53:32;101198.75;;;25.11;56.22
19112;BME280;9688;51.906;8.376;2023-05-08T12:56:21;101195.97;;;25.22;55.79
19112;BME280;9688;51.906;8.376;2023-05-08T12:59:08;101189.84;;;25.40;55.19
19112;BME280;9688;51.906;8.376;2023-05-08T13:01:54;101188.84;;;25.31;55.08
19112;BME280;9688;51.906;8.376;2023-05-08T13:04:42;101179.84;;;25.21;55.40
19112;BME280;9688;51.906;8.376;2023-05-08T13:07:31;101186.13;;;25.41;54.94
19112;BME280;9688;51.906;8.376;2023-05-08T13:10:20;101175.75;;;25.36;55.14
19112;BME280;9688;51.906;8.376;2023-05-08T13:13:06;101188.84;;;25.50;55.00
19112;BME280;9688;51.906;8.376;2023-05-08T13:15:57;101179.28;;;25.66;54.71
19112;BME280;9688;51.906;8.376;2023-05-08T13:18:48;101180.00;;;25.68;54.55
19112;BME280;9688;51.906;8.376;2023-05-08T13:21:39;101172.19;;;25.65;54.43
19112;BME280;9688;51.906;8.376;2023-05-08T13:24:27;101185.72;;;25.45;54.94
19112;BME280;9688;51.906;8.376;2023-05-08T13:27:13;101179.88;;;25.30;55.53
19112;BME280;9688;51.906;8.376;2023-05-08T13:30:01;101174.84;;;25.16;55.14
19112;BME280;9688;51.906;8.376;2023-05-08T13:32:52;101179.78;;;24.91;55.59
19112;BME280;9688;51.906;8.376;2023-05-08T13:35:41;101173.06;;;24.86;55.53
19112;BME280;9688;51.906;8.376;2023-05-08T13:38:33;101178.84;;;24.71;55.47
19112;BME280;9688;51.906;8.376;2023-05-08T13:41:20;101179.22;;;24.57;55.80
19112;BME280;9688;51.906;8.376;2023-05-08T13:44:07;101176.75;;;24.44;56.10
19112;BME280;9688;51.906;8.376;2023-05-08T13:46:53;101179.19;;;24.26;56.52
19112;BME280;9688;51.906;8.376;2023-05-08T13:49:40;101176.44;;;24.17;56.81
19112;BME280;9688;51.906;8.376;2023-05-08T13:52:31;101172.16;;;24.14;56.96
19112;BME280;9688;51.906;8.376;2023-05-08T13:55:25;101172.88;;;24.16;57.57
19112;BME280;9688;51.906;8.376;2023-05-08T13:58:12;101178.53;;;24.13;57.56
19112;BME280;9688;51.906;8.376;2023-05-08T14:01:06;101171.25;;;24.04;57.91
19112;BME280;9688;51.906;8.376;2023-05-08T14:03:52;101175.44;;;23.97;58.15
19112;BME280;9688;51.906;8.376;2023-05-08T14:06:37;101173.00;;;23.94;58.38
19112;BME280;9688;51.906;8.376;2023-05-08T14:09:23;101159.25;;;23.97;58.35
19112;BME280;9688;51.906;8.376;2023-05-08T14:12:16;101167.34;;;23.97;58.56
19112;BME280;9688;51.906;8.376;2023-05-08T14:15:04;101156.69;;;23.95;58.72
19112;BME280;9688;51.906;8.376;2023-05-08T14:17:53;101162.00;;;23.86;59.02
19112;BME280;9688;51.906;8.376;2023-05-08T14:20:41;101162.47;;;23.70;59.44
19112;BME280;9688;51.906;8.376;2023-05-08T14:23:28;101165.63;;;23.75;59.62
19112;BME280;9688;51.906;8.376;2023-05-08T14:26:15;101148.72;;;23.73;59.54
19112;BME280;9688;51.906;8.376;2023-05-08T14:29:04;101152.94;;;23.54;59.79
19112;BME280;9688;51.906;8.376;2023-05-08T14:31:52;101165.75;;;23.41;59.68
19112;BME280;9688;51.906;8.376;2023-05-08T14:37:26;101168.72;;;23.06;61.17
19112;BME280;9688;51.906;8.376;2023-05-08T14:40:19;101187.81;;;22.80;62.88
19112;BME280;9688;51.906;8.376;2023-05-08T14:43:12;101203.41;;;22.54;64.15
19112;BME280;9688;51.906;8.376;2023-05-08T14:46:01;101209.63;;;22.21;66.77
19112;BME280;9688;51.906;8.376;2023-05-08T14:48:48;101213.63;;;21.80;69.52
19112;BME280;9688;51.906;8.376;2023-05-08T14:51:34;101218.19;;;21.19;73.02
19112;BME280;9688;51.906;8.376;2023-05-08T14:54:20;101205.19;;;20.76;75.87
19112;BME280;9688;51.906;8.376;2023-05-08T14:57:07;101204.78;;;20.43;77.54
19112;BME280;9688;51.906;8.376;2023-05-08T14:59:52;101218.09;;;20.07;80.01
19112;BME280;9688;51.906;8.376;2023-05-08T15:02:42;101218.00;;;19.68;82.47
19112;BME280;9688;51.906;8.376;2023-05-08T15:05:33;101218.88;;;19.27;84.71